Time;durP1;ratioP1;P1;durP2;ratioP2;P2;SDS_P1;SDS_P2;PMS_P1;PMS_P2;Temp;Humidity;BMP_temperature;BMP_pressure;BME280_temperature;BME280_humidity;BME280_pressure;Samples;Min_cycle;Max_cycle;Signal;HPM_P1;HPM_P2
2021/04/06 00:01:53;;;;;;;3.63;1.97;;;;;;;0.83;58.26;96338.63;5032125;28;20969;-68
2021/04/06 00:04:21;;;;;;;2.33;1.63;;;;;;;0.80;58.40;96345.75;5030042;28;20430;-68
2021/04/06 00:06:50;;;;;;;2.37;1.40;;;;;;;0.94;58.51;96344.78;5030030;28;20505;-69
2021/04/06 00:09:22;;;;;;;3.20;1.70;;;;;;;1.07;58.58;96335.19;5019261;28;20871;-69
2021/04/06 00:11:49;;;;;;;3.43;1.73;;;;;;;1.04;58.68;96338.00;5010867;28;20799;-68
2021/04/06 00:14:15;;;;;;;6.10;2.20;;;;;;;0.86;58.99;96329.84;5021892;28;20462;-68
2021/04/06 00:16:42;;;;;;;4.37;1.73;;;;;;;0.86;60.47;96329.84;5021136;28;20478;-68
2021/04/06 00:19:11;;;;;;;4.17;1.90;;;;;;;0.64;61.03;96331.41;5026543;28;20487;-69
2021/04/06 00:21:38;;;;;;;5.57;2.10;;;;;;;0.75;60.40;96328.88;5030500;28;20917;-69
2021/04/06 00:24:04;;;;;;;4.30;2.20;;;;;;;0.59;61.03;96328.34;5029507;28;21758;-68
2021/04/06 00:26:50;;;;;;;6.80;2.37;;;;;;;0.83;60.61;96319.75;5030234;28;20495;-67
2021/04/06 00:29:18;;;;;;;8.50;2.10;;;;;;;0.88;60.12;96318.47;5016103;28;20433;-67
2021/04/06 00:31:46;;;;;;;7.10;2.70;;;;;;;0.38;61.29;96321.22;5030243;28;20547;-66
2021/04/06 00:34:13;;;;;;;5.23;2.40;;;;;;;0.81;60.23;96326.78;5015034;28;20460;-68
2021/04/06 00:36:39;;;;;;;7.60;2.53;;;;;;;0.53;60.56;96329.63;5031467;28;20444;-68
2021/04/06 00:39:06;;;;;;;3.43;2.27;;;;;;;0.93;59.99;96325.06;5029918;28;20523;-68
2021/04/06 00:41:31;;;;;;;5.23;2.50;;;;;;;0.88;59.84;96330.56;5029410;28;20425;-69
2021/04/06 00:43:58;;;;;;;4.87;2.23;;;;;;;1.26;59.25;96329.44;5030355;28;20429;-68
2021/04/06 00:46:26;;;;;;;2.27;2.07;;;;;;;1.33;59.07;96328.06;5029269;28;20225;-68
2021/04/06 00:48:54;;;;;;;6.70;2.40;;;;;;;1.12;59.13;96324.50;5029897;28;20444;-68
2021/04/06 00:51:20;;;;;;;5.33;2.03;;;;;;;0.94;59.63;96337.03;5029734;28;20430;-68
2021/04/06 00:54:00;;;;;;;5.20;2.37;;;;;;;1.15;58.93;96332.00;5030231;28;20429;-68
2021/04/06 00:56:29;;;;;;;2.53;1.90;;;;;;;1.23;58.75;96327.09;5029329;28;20454;-68
2021/04/06 00:58:57;;;;;;;3.63;2.20;;;;;;;1.16;58.92;96331.91;5030770;28;20483;-68
2021/04/06 01:01:42;;;;;;;10.13;2.70;;;;;;;0.95;58.98;96336.06;5030955;28;20426;-69
2021/04/06 01:04:16;;;;;;;3.83;2.27;;;;;;;1.14;58.46;96338.09;5029948;28;20488;-69
2021/04/06 01:07:01;;;;;;;5.27;2.37;;;;;;;1.24;58.16;96344.25;5030561;28;20465;-69
2021/04/06 01:09:33;;;;;;;5.53;2.53;;;;;;;1.23;58.31;96343.41;5023981;28;20426;-68
2021/04/06 01:12:01;;;;;;;4.70;2.37;;;;;;;0.70;59.37;96343.88;5030418;28;20429;-69
2021/04/06 01:14:28;;;;;;;3.17;2.20;;;;;;;1.02;59.38;96338.09;5030008;28;20418;-68
2021/04/06 01:16:55;;;;;;;7.70;2.37;;;;;;;0.98;59.08;96344.44;5026479;28;20450;-68
2021/04/06 01:19:21;;;;;;;6.20;2.80;;;;;;;1.07;58.56;96340.34;5022250;28;20789;-69
2021/04/06 01:21:47;;;;;;;3.37;2.03;;;;;;;1.24;58.57;96341.66;5026560;28;20788;-68
2021/04/06 01:24:13;;;;;;;6.50;2.30;;;;;;;1.33;58.40;96328.06;5028985;28;20592;-70
2021/04/06 01:26:39;;;;;;;6.27;2.17;;;;;;;0.73;59.29;96338.50;5026648;28;20488;-70
2021/04/06 01:29:05;;;;;;;4.67;2.70;;;;;;;1.12;58.60;96324.50;5030531;28;20509;-66
2021/04/06 01:31:32;;;;;;;3.03;2.00;;;;;;;1.16;58.45;96320.75;5030790;28;20179;-67
2021/04/06 01:33:59;;;;;;;5.20;2.20;;;;;;;1.15;58.18;96339.75;5029109;28;20741;-68
2021/04/06 01:36:28;;;;;;;7.63;2.70;;;;;;;1.11;58.37;96343.53;5030128;28;20446;-69
2021/04/06 01:38:54;;;;;;;5.63;2.30;;;;;;;1.17;58.01;96336.13;5030791;28;20441;-68
2021/04/06 01:41:20;;;;;;;4.53;2.43;;;;;;;1.20;57.19;96322.16;5029828;28;20426;-68
2021/04/06 01:43:50;;;;;;;4.77;2.63;;;;;;;1.16;57.65;96321.59;5029819;28;20906;-68
2021/04/06 01:46:18;;;;;;;5.07;2.10;;;;;;;0.72;58.24;96321.38;5033770;28;20473;-68
2021/04/06 01:48:44;;;;;;;4.50;2.87;;;;;;;0.87;58.40;96316.81;5017093;28;20437;-67
2021/04/06 01:51:12;;;;;;;7.03;2.23;;;;;;;0.91;58.53;96320.00;5034641;28;20429;-69
2021/04/06 01:53:40;;;;;;;2.90;2.20;;;;;;;0.62;58.56;96312.66;5034229;28;20936;-68
2021/04/06 01:56:10;;;;;;;4.47;2.37;;;;;;;0.41;59.07;96315.03;5034126;28;20442;-68
2021/04/06 01:58:38;;;;;;;9.03;2.70;;;;;;;0.32;59.69;96313.94;5034350;28;20508;-68
2021/04/06 02:03:33;;;;;;;3.77;2.40;;;;;;;0.37;59.53;96304.13;5033592;28;20424;-68
2021/04/06 02:05:59;;;;;;;4.20;2.80;;;;;;;0.35;59.75;96290.53;5033992;28;20553;-68
2021/04/06 02:08:27;;;;;;;5.10;2.30;;;;;;;0.47;59.07;96299.13;5016466;28;20504;-68
2021/04/06 02:10:53;;;;;;;12.13;2.70;;;;;;;-0.24;60.63;96304.97;5034023;28;20436;-68
2021/04/06 02:13:19;;;;;;;8.80;2.93;;;;;;;-0.07;60.75;96300.38;5034041;28;20517;-68
2021/04/06 02:16:05;;;;;;;8.13;2.50;;;;;;;0.05;60.70;96291.78;5028896;28;20447;-68
2021/04/06 02:18:32;;;;;;;9.50;3.03;;;;;;;0.05;59.82;96294.38;5024077;28;20202;-68
2021/04/06 02:20:59;;;;;;;3.60;2.67;;;;;;;0.06;60.57;96300.34;5033529;28;20431;-68
2021/04/06 02:23:26;;;;;;;4.30;2.70;;;;;;;-0.14;60.57;96294.03;5033967;28;20451;-68
2021/04/06 02:25:56;;;;;;;3.07;2.13;;;;;;;0.02;60.30;96294.56;5031399;28;20568;-68
2021/04/06 02:28:25;;;;;;;3.60;2.43;;;;;;;0.06;59.76;96293.44;5035312;28;20430;-68
2021/04/06 02:30:55;;;;;;;9.90;2.67;;;;;;;-0.02;60.26;96293.16;5033367;28;20441;-67
2021/04/06 02:33:23;;;;;;;3.57;2.20;;;;;;;0.01;60.19;96292.94;5032476;28;20965;-67
2021/04/06 02:35:56;;;;;;;3.20;2.50;;;;;;;-0.01;60.58;96289.66;5032532;28;21009;-67
2021/04/06 02:38:22;;;;;;;4.37;2.50;;;;;;;-0.22;60.75;96290.22;5032522;28;20946;-67
2021/04/06 02:40:48;;;;;;;15.77;2.57;;;;;;;0.06;59.74;96284.91;5031545;28;20439;-68
2021/04/06 02:43:14;;;;;;;3.10;2.20;;;;;;;-0.02;59.77;96293.97;5033293;28;20431;-68
2021/04/06 02:45:40;;;;;;;2.80;2.20;;;;;;;-0.01;59.62;96276.78;5031044;28;20477;-68
2021/04/06 02:48:12;;;;;;;6.40;2.90;;;;;;;-0.22;60.53;96290.22;5025246;28;20263;-68
2021/04/06 02:50:40;;;;;;;5.43;2.73;;;;;;;-0.31;60.64;96296.84;5033286;28;20181;-68
2021/04/06 02:53:07;;;;;;;7.67;3.20;;;;;;;-0.65;62.17;96296.59;5027197;28;20812;-68
2021/04/06 02:55:35;;;;;;;4.13;2.83;;;;;;;-0.49;61.30;96290.41;5031368;28;20436;-68
2021/04/06 02:58:01;;;;;;;5.10;2.53;;;;;;;-0.19;60.83;96286.63;5031110;28;20445;-67
2021/04/06 03:00:26;;;;;;;6.43;2.87;;;;;;;-0.19;60.43;96276.34;5032900;28;20428;-68
2021/04/06 03:02:52;;;;;;;8.30;2.97;;;;;;;-0.64;62.19;96282.81;5031870;28;20726;-68
2021/04/06 03:05:28;;;;;;;6.47;2.67;;;;;;;-0.60;62.01;96277.47;5025196;28;20264;-68
2021/04/06 03:07:54;;;;;;;7.23;2.77;;;;;;;-0.85;62.86;96274.00;5032846;28;20441;-68
2021/04/06 03:10:20;;;;;;;5.80;2.87;;;;;;;-0.75;62.83;96276.72;5032096;28;20428;-68
2021/04/06 03:12:47;;;;;;;5.83;2.90;;;;;;;-0.90;62.99;96269.16;5026745;28;20235;-68
2021/04/06 03:15:13;;;;;;;5.00;3.03;;;;;;;-0.74;62.39;96274.06;5032168;28;20421;-68
2021/04/06 03:17:46;;;;;;;4.90;2.87;;;;;;;-0.86;62.37;96268.00;5025667;28;20424;-68
2021/04/06 03:20:12;;;;;;;3.57;2.53;;;;;;;-0.73;61.98;96262.84;5025128;28;20504;-67
2021/04/06 03:22:38;;;;;;;6.80;3.10;;;;;;;-1.01;62.42;96263.91;5032261;28;20837;-68
2021/04/06 03:25:05;;;;;;;3.30;2.43;;;;;;;-1.02;62.59;96270.78;5031620;28;20459;-68
2021/04/06 03:27:30;;;;;;;3.07;2.73;;;;;;;-1.13;63.38;96265.56;5028305;28;20972;-67
2021/04/06 03:29:57;;;;;;;7.00;2.90;;;;;;;-1.09;63.19;96272.97;5030869;28;20419;-68
2021/04/06 03:32:23;;;;;;;5.43;2.97;;;;;;;-0.82;62.15;96269.44;5032305;28;20206;-68
2021/04/06 03:34:50;;;;;;;11.07;2.77;;;;;;;-1.12;63.29;96273.16;5031843;28;20949;-68
2021/04/06 03:37:16;;;;;;;5.20;2.97;;;;;;;-1.14;63.55;96269.88;5032481;28;20433;-67
2021/04/06 03:39:42;;;;;;;7.40;3.43;;;;;;;-0.75;62.52;96261.28;5032176;28;20971;-68
2021/04/06 03:42:07;;;;;;;8.77;3.20;;;;;;;-0.36;61.24;96265.47;5032391;28;20185;-67
2021/04/06 03:44:33;;;;;;;3.97;2.80;;;;;;;-0.71;62.10;96265.31;5031747;28;20528;-68
2021/04/06 03:47:04;;;;;;;7.47;2.90;;;;;;;-0.37;60.50;96262.97;5031592;28;20201;-67
2021/04/06 03:49:31;;;;;;;7.40;2.87;;;;;;;-0.53;60.83;96264.06;5032241;28;20205;-68
2021/04/06 03:51:57;;;;;;;2.93;2.50;;;;;;;-0.44;60.60;96252.28;5012858;28;20437;-69
2021/04/06 03:54:45;;;;;;;3.83;3.40;;;;;;;-0.68;61.20;96249.66;5025656;28;20919;-68
2021/04/06 03:57:23;;;;;;;6.23;3.10;;;;;;;-0.50;61.37;96252.72;5032715;28;20660;-68
2021/04/06 03:59:49;;;;;;;3.90;2.93;;;;;;;-0.83;61.84;96252.38;5016820;28;20982;-65
2021/04/06 04:02:14;;;;;;;7.50;3.17;;;;;;;-0.56;61.40;96250.56;5004036;28;20428;-67
2021/04/06 04:04:40;;;;;;;6.60;3.80;;;;;;;-0.93;62.48;96253.91;5011723;28;20513;-66
2021/04/06 04:07:07;;;;;;;5.80;4.00;;;;;;;-1.00;62.92;96247.53;5011670;28;20222;-67
2021/04/06 04:09:33;;;;;;;6.67;3.20;;;;;;;-0.72;62.13;96256.78;5011517;28;20231;-67
2021/04/06 04:11:59;;;;;;;13.60;3.30;;;;;;;-0.73;61.65;96254.28;5011844;28;20434;-67
2021/04/06 04:14:24;;;;;;;8.60;3.83;;;;;;;-0.73;61.78;96260.28;5011154;28;20417;-67
2021/04/06 04:16:50;;;;;;;6.97;3.50;;;;;;;-1.03;62.78;96269.16;5011476;28;20194;-67
2021/04/06 04:19:16;;;;;;;4.50;3.50;;;;;;;-0.74;62.30;96265.53;5009204;28;20587;-67
2021/04/06 04:21:41;;;;;;;6.73;3.23;;;;;;;-0.55;61.64;96265.91;5011927;28;20217;-68
2021/04/06 04:24:08;;;;;;;6.83;2.87;;;;;;;-0.65;61.64;96270.06;5011098;28;20195;-68
2021/04/06 04:26:33;;;;;;;5.10;3.33;;;;;;;-0.64;62.31;96271.69;5011705;28;20767;-67
2021/04/06 04:28:59;;;;;;;4.17;3.10;;;;;;;-0.52;62.01;96270.84;5010475;28;20434;-68
2021/04/06 04:31:25;;;;;;;5.23;3.50;;;;;;;-0.26;60.83;96272.53;5014176;28;20183;-67
2021/04/06 04:33:51;;;;;;;7.90;3.10;;;;;;;-0.39;61.41;96268.25;5009643;28;20271;-67
2021/04/06 04:36:17;;;;;;;4.40;3.37;;;;;;;-0.43;61.53;96271.13;5011622;28;21056;-67
2021/04/06 04:38:42;;;;;;;3.47;2.90;;;;;;;-0.41;61.00;96266.72;5011584;28;20193;-66
2021/04/06 04:41:08;;;;;;;9.00;3.50;;;;;;;-0.03;60.78;96271.72;5011370;28;20267;-67
2021/04/06 04:43:33;;;;;;;5.13;3.80;;;;;;;-0.13;60.79;96272.50;5012098;28;20203;-67
2021/04/06 04:45:59;;;;;;;8.17;3.60;;;;;;;0.18;60.70;96268.56;5010202;28;20210;-67
2021/04/06 04:48:25;;;;;;;9.93;3.80;;;;;;;0.35;59.69;96269.91;5017755;28;20205;-66
2021/04/06 04:50:50;;;;;;;9.03;3.90;;;;;;;-0.04;60.69;96269.25;5011224;28;20315;-67
2021/04/06 04:53:16;;;;;;;8.13;3.53;;;;;;;0.30;60.05;96266.84;5010040;28;20208;-67
2021/04/06 04:55:42;;;;;;;7.87;3.90;;;;;;;0.25;59.59;96268.94;5010506;28;20199;-68
2021/04/06 04:58:07;;;;;;;3.90;3.20;;;;;;;0.43;59.42;96267.59;5011348;28;20835;-67
2021/04/06 05:00:33;;;;;;;5.43;3.30;;;;;;;0.24;59.91;96267.28;5012417;28;20191;-68
2021/04/06 05:02:59;;;;;;;6.47;3.07;;;;;;;0.39;59.98;96271.31;5011033;28;20187;-68
2021/04/06 05:05:25;;;;;;;7.60;3.77;;;;;;;0.40;59.62;96262.66;5008996;28;20228;-68
2021/04/06 05:07:51;;;;;;;8.57;4.40;;;;;;;-0.37;61.60;96262.97;5011177;28;20511;-67
2021/04/06 05:10:16;;;;;;;4.33;3.13;;;;;;;0.08;61.57;96262.41;5011183;28;20186;-68
2021/04/06 05:12:48;;;;;;;12.13;4.10;;;;;;;-0.57;63.25;96264.38;5011191;28;20188;-67
2021/04/06 05:15:14;;;;;;;14.33;4.53;;;;;;;-0.49;62.94;96264.66;5005636;28;20425;-68
2021/04/06 05:17:40;;;;;;;10.13;4.07;;;;;;;-0.11;62.81;96268.03;5008469;28;20417;-67
2021/04/06 05:20:07;;;;;;;7.50;4.23;;;;;;;0.04;62.62;96271.31;5012924;28;20833;-68
2021/04/06 05:22:33;;;;;;;15.60;4.20;;;;;;;-0.28;62.40;96269.22;5019592;28;20620;-67
2021/04/06 05:24:58;;;;;;;8.43;3.60;;;;;;;-0.14;63.04;96273.44;5013890;28;20957;-68
2021/04/06 05:27:24;;;;;;;5.37;3.30;;;;;;;-0.48;63.88;96274.03;5015080;28;20493;-68
2021/04/06 05:29:50;;;;;;;12.10;4.20;;;;;;;-0.38;63.61;96267.31;5023905;28;20190;-68
2021/04/06 05:32:16;;;;;;;7.93;3.90;;;;;;;0.05;62.35;96267.78;5017220;28;20230;-68
2021/04/06 05:34:41;;;;;;;14.77;4.10;;;;;;;0.22;61.43;96269.97;5012821;28;20199;-68
2021/04/06 05:37:07;;;;;;;21.20;4.60;;;;;;;0.05;62.77;96270.38;5014800;28;20202;-67
2021/04/06 05:39:33;;;;;;;6.27;3.50;;;;;;;0.17;61.64;96273.81;5015041;28;20188;-67
2021/04/06 05:41:59;;;;;;;7.50;3.00;;;;;;;0.40;61.66;96278.13;5014542;28;20430;-68
2021/04/06 05:44:25;;;;;;;9.47;3.80;;;;;;;0.56;61.04;96269.25;5014990;28;20180;-68
2021/04/06 05:46:54;;;;;;;7.70;4.00;;;;;;;0.48;61.27;96266.44;5013220;28;20501;-67
2021/04/06 05:49:25;;;;;;;5.00;3.67;;;;;;;0.69;60.86;96264.03;5013529;28;20420;-68
2021/04/06 05:51:53;;;;;;;11.07;3.83;;;;;;;0.02;63.15;96258.50;5014732;28;20427;-67
2021/04/06 05:54:20;;;;;;;6.40;3.47;;;;;;;0.15;62.35;96259.28;5013842;28;20420;-66
2021/04/06 05:56:46;;;;;;;16.03;4.37;;;;;;;-0.15;62.66;96257.13;5011081;28;20453;-65
2021/04/06 05:59:12;;;;;;;11.27;4.00;;;;;;;0.36;61.73;96256.09;5014693;28;20427;-67
2021/04/06 06:01:41;;;;;;;7.63;3.30;;;;;;;0.77;61.04;96248.81;5012510;28;20428;-67
2021/04/06 06:04:09;;;;;;;11.23;3.50;;;;;;;0.24;62.23;96252.63;5012153;28;20698;-66
2021/04/06 06:06:36;;;;;;;7.30;3.30;;;;;;;0.09;62.28;96257.16;5012662;28;20507;-66
2021/04/06 06:09:04;;;;;;;5.60;3.20;;;;;;;0.82;60.84;96254.41;5016139;28;20432;-65
2021/04/06 06:11:31;;;;;;;15.00;4.20;;;;;;;0.15;62.26;96258.47;5033771;28;20914;-66
2021/04/06 06:13:58;;;;;;;9.83;3.80;;;;;;;0.38;61.82;96267.09;5033327;28;20598;-67
2021/04/06 06:16:25;;;;;;;9.37;4.00;;;;;;;0.49;61.84;96270.66;5031225;28;20986;-66
2021/04/06 06:18:56;;;;;;;11.70;4.50;;;;;;;0.41;61.65;96272.03;5028309;28;20452;-66
2021/04/06 06:21:23;;;;;;;10.53;3.50;;;;;;;0.69;61.40;96277.75;5034658;28;20417;-68
2021/04/06 06:23:49;;;;;;;12.00;4.20;;;;;;;0.56;61.69;96280.41;5034367;28;21029;-67
2021/04/06 06:26:16;;;;;;;5.63;3.80;;;;;;;0.67;61.25;96268.47;5031748;28;20943;-66
2021/04/06 06:29:04;;;;;;;15.00;3.73;;;;;;;0.32;63.04;96275.28;5034025;28;20439;-68
2021/04/06 06:31:40;;;;;;;15.43;3.73;;;;;;;0.60;61.47;96268.91;5033728;28;20478;-68
2021/04/06 06:34:24;;;;;;;11.40;4.03;;;;;;;0.77;60.43;96265.09;5031853;28;20840;-66
2021/04/06 06:37:07;;;;;;;10.10;4.10;;;;;;;0.82;60.38;96277.63;5033181;28;20807;-66
2021/04/06 06:39:54;;;;;;;6.00;3.07;;;;;;;1.02;60.76;96268.41;5022181;28;20421;-68
2021/04/06 06:42:50;;;;;;;11.13;4.27;;;;;;;1.11;60.56;96281.56;5007230;28;20416;-67
2021/04/06 06:45:24;;;;;;;12.00;3.60;;;;;;;1.07;60.04;96279.22;4957879;28;20453;-66
2021/04/06 06:47:57;;;;;;;10.90;3.27;;;;;;;1.13;60.54;96274.53;4971885;28;20440;-66
2021/04/06 06:50:24;;;;;;;9.47;3.80;;;;;;;1.14;60.16;96278.75;4972038;28;20951;-67
2021/04/06 06:52:54;;;;;;;10.70;4.13;;;;;;;1.53;59.19;96267.13;4971984;28;20552;-69
2021/04/06 06:55:23;;;;;;;6.40;3.10;;;;;;;1.57;58.88;96267.72;4971466;28;20459;-68
2021/04/06 06:57:50;;;;;;;10.50;3.10;;;;;;;1.24;59.07;96266.81;4972084;28;20459;-68
2021/04/06 07:00:21;;;;;;;17.73;3.70;;;;;;;1.56;59.23;96262.69;4965136;28;20428;-68
2021/04/06 07:02:47;;;;;;;18.60;3.33;;;;;;;1.49;58.60;96268.31;4971887;28;20526;-67
2021/04/06 07:05:23;;;;;;;9.33;3.30;;;;;;;1.40;59.39;96263.03;4971134;28;20432;-67
2021/04/06 07:07:51;;;;;;;6.80;3.23;;;;;;;2.12;57.58;96259.16;4971903;28;20538;-68
2021/04/06 07:10:20;;;;;;;7.63;3.70;;;;;;;2.10;57.30;96261.84;4971887;28;20448;-68
2021/04/06 07:12:48;;;;;;;12.90;3.50;;;;;;;2.29;56.95;96262.97;4971978;28;20429;-67
2021/04/06 07:15:15;;;;;;;10.70;3.93;;;;;;;2.13;57.13;96266.78;4971219;28;20548;-67
2021/04/06 07:17:43;;;;;;;6.87;3.23;;;;;;;1.41;58.54;96264.66;4969042;28;20464;-68
2021/04/06 07:20:17;;;;;;;13.60;3.60;;;;;;;1.99;57.70;96262.72;4972004;28;20499;-68
2021/04/06 07:22:46;;;;;;;13.50;4.03;;;;;;;1.09;59.53;96266.19;5025011;28;20917;-67
2021/04/06 07:25:15;;;;;;;5.70;3.20;;;;;;;1.57;58.32;96257.38;5031011;28;20431;-68
2021/04/06 07:27:42;;;;;;;15.53;3.80;;;;;;;1.64;58.24;96258.53;5030889;28;20986;-68
2021/04/06 07:30:11;;;;;;;10.37;3.70;;;;;;;1.77;58.87;96266.16;5024700;28;20840;-69
2021/04/06 07:32:40;;;;;;;7.20;3.17;;;;;;;1.93;58.28;96258.00;5032546;28;20867;-68
2021/04/06 07:35:08;;;;;;;9.77;3.90;;;;;;;2.10;57.91;96273.97;5029869;28;20816;-67
2021/04/06 07:37:45;;;;;;;5.73;3.30;;;;;;;2.27;57.21;96276.00;5032126;28;20434;-68
2021/04/06 07:40:14;;;;;;;6.87;3.30;;;;;;;2.64;56.77;96258.47;5026394;28;20425;-68
2021/04/06 07:42:43;;;;;;;8.10;3.57;;;;;;;2.89;55.98;96259.81;5031540;28;20422;-67
2021/04/06 07:45:24;;;;;;;8.63;4.13;;;;;;;2.95;55.16;96274.03;5014881;28;20422;-68
2021/04/06 07:47:50;;;;;;;7.67;3.53;;;;;;;2.36;57.49;96269.25;5023608;28;20769;-68
2021/04/06 07:50:43;;;;;;;18.03;3.50;;;;;;;3.00;55.64;96257.16;5023393;28;20516;-68
2021/04/06 07:53:39;;;;;;;9.63;3.13;;;;;;;2.89;55.56;96260.66;5011758;28;20426;-68
2021/04/06 07:56:06;;;;;;;11.40;3.60;;;;;;;3.07;55.07;96270.41;5024611;28;20485;-68
2021/04/06 07:59:04;;;;;;;11.77;3.40;;;;;;;2.82;55.55;96269.06;5025514;28;20832;-68
2021/04/06 08:01:30;;;;;;;8.17;3.67;;;;;;;2.72;55.05;96274.16;4998975;28;20514;-68
2021/04/06 08:04:00;;;;;;;7.67;3.47;;;;;;;3.31;54.64;96264.13;5009340;28;20855;-69
2021/04/06 08:06:27;;;;;;;18.27;3.13;;;;;;;2.33;56.58;96268.69;5003540;28;20535;-68
2021/04/06 08:08:53;;;;;;;11.32;3.22;;;;;;;3.29;54.40;96266.00;5000884;28;20934;-71
2021/04/06 08:11:20;;;;;;;9.47;3.70;;;;;;;3.33;53.52;96264.81;4993315;28;20192;-69
2021/04/06 08:13:48;;;;;;;9.53;3.57;;;;;;;3.33;53.77;96268.25;4998434;28;20207;-69
2021/04/06 08:16:21;;;;;;;8.93;3.77;;;;;;;3.23;54.00;96265.59;4987329;28;20459;-68
2021/04/06 08:18:51;;;;;;;9.77;3.33;;;;;;;2.97;54.61;96262.59;5004362;28;20951;-70
2021/04/06 08:21:24;;;;;;;13.53;3.20;;;;;;;3.40;53.76;96268.53;5008733;28;20424;-70
2021/04/06 08:23:52;;;;;;;11.00;4.30;;;;;;;2.95;55.01;96263.66;5008530;28;20539;-70
2021/04/06 08:26:32;;;;;;;8.73;2.93;;;;;;;3.09;54.16;96271.09;5008439;28;20537;-67
2021/04/06 08:29:30;;;;;;;10.37;3.80;;;;;;;3.39;54.48;96261.72;4993374;28;20427;-68
2021/04/06 08:32:25;;;;;;;4.40;3.03;;;;;;;3.01;54.72;96263.97;4932867;29;20434;-71
2021/04/06 08:34:52;;;;;;;10.03;3.57;;;;;;;3.42;53.33;96266.63;4932923;29;20450;-69
2021/04/06 08:37:20;;;;;;;10.93;3.87;;;;;;;3.46;53.86;96268.00;4942941;29;20881;-69
2021/04/06 08:39:46;;;;;;;7.03;3.00;;;;;;;3.37;54.35;96268.78;4950888;28;20438;-69
2021/04/06 08:42:16;;;;;;;5.97;3.17;;;;;;;3.40;54.01;96263.38;4950255;28;20461;-70
2021/04/06 08:44:44;;;;;;;6.17;3.33;;;;;;;3.52;54.47;96270.09;4950230;28;20476;-70
2021/04/06 08:47:36;;;;;;;10.57;3.80;;;;;;;3.13;55.49;96271.66;4949908;29;20466;-69
2021/04/06 08:50:02;;;;;;;7.30;3.37;;;;;;;2.63;55.60;96274.94;4950853;28;20437;-69
2021/04/06 08:52:27;;;;;;;32.57;16.00;;;;;;;2.63;56.88;96280.09;4951002;29;20434;-68
2021/04/06 08:55:07;;;;;;;15.53;6.87;;;;;;;2.76;56.21;96297.06;4951048;28;20442;-72
2021/04/06 08:57:33;;;;;;;7.03;3.20;;;;;;;2.87;56.05;96277.25;4955464;28;20589;-71
2021/04/06 09:00:06;;;;;;;10.37;3.07;;;;;;;2.76;55.20;96280.75;4950244;28;20476;-70
2021/04/06 09:02:32;;;;;;;13.17;5.60;;;;;;;2.85;55.74;96279.13;4934226;29;20285;-69
2021/04/06 09:04:58;;;;;;;7.80;3.23;;;;;;;3.30;55.06;96283.19;4949662;29;20445;-71
2021/04/06 09:07:25;;;;;;;11.67;3.87;;;;;;;3.35;54.51;96276.69;4982556;28;20232;-71
2021/04/06 09:10:04;;;;;;;6.57;2.80;;;;;;;3.34;54.33;96276.81;5023167;28;20191;-70
2021/04/06 09:12:30;;;;;;;6.93;3.30;;;;;;;2.99;55.97;96289.16;5031023;28;20943;-70
2021/04/06 09:14:56;;;;;;;10.40;3.20;;;;;;;2.76;56.49;96296.25;5030204;28;20426;-70
2021/04/06 09:17:27;;;;;;;9.93;3.17;;;;;;;3.02;55.68;96288.94;5026089;28;20446;-70
2021/04/06 09:19:54;;;;;;;6.40;3.20;;;;;;;3.00;56.37;96292.59;5022153;28;20432;-71
2021/04/06 09:22:19;;;;;;;7.90;3.27;;;;;;;2.77;56.73;96303.09;5030877;28;20427;-70
2021/04/06 09:24:45;;;;;;;3.77;2.70;;;;;;;3.58;55.34;96286.03;5028386;28;20968;-69
2021/04/06 09:27:11;;;;;;;9.23;3.63;;;;;;;4.02;54.10;96278.81;5029557;28;20670;-69
2021/04/06 09:29:42;;;;;;;7.93;4.07;;;;;;;4.13;53.68;96278.69;5030716;28;20179;-70
2021/04/06 09:32:11;;;;;;;13.03;3.30;;;;;;;3.96;53.95;96284.50;5016117;28;20431;-70
2021/04/06 09:34:41;;;;;;;12.97;3.80;;;;;;;3.63;54.28;96281.28;5020773;28;20426;-70
2021/04/06 09:37:15;;;;;;;5.17;2.70;;;;;;;4.02;52.44;96272.78;5027695;28;20545;-69
2021/04/06 09:39:46;;;;;;;3.77;2.30;;;;;;;3.79;52.98;96273.81;5020626;28;20469;-68
2021/04/06 09:42:12;;;;;;;13.33;3.70;;;;;;;3.79;53.46;96281.59;5030263;28;20415;-70
2021/04/06 09:44:39;;;;;;;7.60;3.20;;;;;;;3.82;53.79;96283.13;5029814;28;20797;-71
2021/04/06 09:47:10;;;;;;;5.20;2.70;;;;;;;3.27;53.77;96278.28;5019183;28;20498;-69
2021/04/06 09:49:39;;;;;;;9.67;3.33;;;;;;;3.43;54.22;96283.81;5011431;28;20805;-71
2021/04/06 09:52:12;;;;;;;7.57;2.43;;;;;;;3.27;53.85;96281.69;5028832;28;20422;-71
2021/04/06 09:54:44;;;;;;;5.37;2.37;;;;;;;3.29;53.64;96272.03;5023278;28;20431;-69
2021/04/06 09:57:10;;;;;;;11.97;2.80;;;;;;;3.77;53.64;96274.91;5029332;28;20929;-70
2021/04/06 09:59:38;;;;;;;7.43;3.00;;;;;;;4.51;51.95;96278.03;5031069;28;20504;-70
2021/04/06 10:02:05;;;;;;;6.73;2.60;;;;;;;3.97;52.22;96271.41;5031067;28;20430;-70
2021/04/06 10:04:45;;;;;;;2.87;2.43;;;;;;;3.52;52.51;96270.09;5023710;28;20451;-70
2021/04/06 10:07:34;;;;;;;7.37;1.83;;;;;;;3.31;53.11;96277.06;5018118;28;20504;-69
2021/04/06 10:10:03;;;;;;;6.77;2.53;;;;;;;3.49;52.23;96270.34;5028023;28;20932;-70
2021/04/06 10:12:31;;;;;;;4.53;2.10;;;;;;;3.25;52.28;96277.59;5033941;28;20418;-70
2021/04/06 10:14:57;;;;;;;4.20;2.63;;;;;;;3.16;53.41;96269.63;5031811;28;20930;-70
2021/04/06 10:17:34;;;;;;;11.17;2.90;;;;;;;3.63;52.47;96260.56;5032226;28;20461;-70
2021/04/06 10:20:07;;;;;;;5.63;2.33;;;;;;;3.71;52.02;96260.72;5023150;28;20528;-70
2021/04/06 10:22:43;;;;;;;8.00;2.40;;;;;;;3.96;52.09;96258.59;5032946;28;20434;-69
2021/04/06 10:25:10;;;;;;;5.80;2.80;;;;;;;3.87;51.69;96254.22;5032770;28;20434;-69
2021/04/06 10:27:44;;;;;;;10.23;2.57;;;;;;;3.60;51.69;96255.63;5033932;28;20483;-69
2021/04/06 10:30:12;;;;;;;16.37;3.10;;;;;;;3.89;51.39;96257.50;5033842;28;20422;-68
2021/04/06 10:32:43;;;;;;;6.50;2.80;;;;;;;3.76;51.31;96257.72;5031089;28;20421;-69
2021/04/06 10:35:10;;;;;;;9.20;3.27;;;;;;;4.35;49.82;96248.25;5025411;28;20898;-69
2021/04/06 10:37:41;;;;;;;5.03;2.53;;;;;;;3.47;49.75;96246.31;5033863;28;20442;-69
2021/04/06 10:40:38;;;;;;;19.17;6.30;;;;;;;4.15;49.31;96245.66;5027407;28;20522;-70
2021/04/06 10:43:16;;;;;;;27.60;10.07;;;;;;;4.40;49.16;96238.28;5033242;28;20465;-69
2021/04/06 10:45:58;;;;;;;23.10;9.87;;;;;;;4.50;48.70;96250.44;5031444;28;20450;-69
2021/04/06 10:48:27;;;;;;;7.87;4.90;;;;;;;3.97;50.25;96242.06;5032207;28;20431;-68
2021/04/06 10:51:17;;;;;;;6.67;2.90;;;;;;;3.86;50.60;96242.19;5033298;28;20521;-69
2021/04/06 10:53:44;;;;;;;4.83;2.50;;;;;;;3.78;49.58;96232.50;5027150;28;20521;-69
2021/04/06 10:56:10;;;;;;;8.67;2.93;;;;;;;4.12;50.08;96238.13;5024460;28;20446;-69
2021/04/06 10:58:46;;;;;;;11.50;3.03;;;;;;;4.30;50.70;96234.84;5033429;28;20893;-69
2021/04/06 11:01:15;;;;;;;6.67;3.10;;;;;;;4.35;49.34;96227.50;5018132;28;20424;-69
2021/04/06 11:03:56;;;;;;;10.50;3.40;;;;;;;4.03;50.39;96223.41;5033529;28;20433;-68
2021/04/06 11:06:22;;;;;;;4.63;2.93;;;;;;;3.60;50.25;96215.00;5024769;28;20470;-68
2021/04/06 11:08:50;;;;;;;7.40;3.00;;;;;;;4.18;49.19;96220.38;5027437;28;20423;-69
2021/04/06 11:11:19;;;;;;;5.87;2.77;;;;;;;4.65;48.25;96227.47;5032400;28;20422;-69
2021/04/06 11:13:45;;;;;;;4.60;2.40;;;;;;;4.68;47.64;96238.38;5033956;28;20517;-68
2021/04/06 11:16:12;;;;;;;8.73;3.00;;;;;;;4.29;48.77;96220.25;5025387;28;20442;-69
2021/04/06 11:18:38;;;;;;;7.87;2.73;;;;;;;4.07;47.34;96209.19;5027642;28;20561;-70
2021/04/06 11:21:04;;;;;;;4.60;2.13;;;;;;;4.25;47.94;96211.13;5033504;28;20921;-68
2021/04/06 11:23:30;;;;;;;2.50;1.97;;;;;;;4.44;48.29;96207.69;5028000;28;20514;-67
2021/04/06 11:25:56;;;;;;;4.20;2.77;;;;;;;4.02;48.74;96210.56;5020193;28;20530;-68
2021/04/06 11:28:21;;;;;;;4.97;2.93;;;;;;;4.90;48.41;96205.28;5027338;28;20187;-67
2021/04/06 11:30:47;;;;;;;6.27;2.67;;;;;;;4.76;46.84;96206.53;5025568;28;20197;-68
2021/04/06 11:33:12;;;;;;;6.83;2.80;;;;;;;4.44;46.74;96203.31;5022203;28;20184;-68
2021/04/06 11:35:39;;;;;;;7.77;3.43;;;;;;;4.42;48.36;96210.41;5017894;28;20209;-68
2021/04/06 11:38:04;;;;;;;10.63;2.53;;;;;;;4.38;49.01;96195.25;5038589;28;20218;-69
2021/04/06 11:40:30;;;;;;;12.43;3.57;;;;;;;4.59;48.37;96195.09;5035592;28;20451;-67
2021/04/06 11:42:56;;;;;;;5.60;2.60;;;;;;;3.67;49.01;96199.72;5039381;28;20736;-67
2021/04/06 11:45:22;;;;;;;5.17;3.07;;;;;;;4.18;47.58;96197.03;5040373;28;20180;-69
2021/04/06 11:47:52;;;;;;;10.07;2.80;;;;;;;4.08;49.23;96200.47;5040988;28;20230;-68
2021/04/06 11:50:19;;;;;;;7.77;3.43;;;;;;;4.10;49.11;96187.34;5042763;28;20774;-67